createdAt,value
2022-12-18T00:02:32.558Z,-4.58
2022-12-18T00:12:40.206Z,-4.52
2022-12-18T00:22:47.144Z,-4.50
2022-12-18T00:32:54.338Z,-4.60
2022-12-18T00:43:01.601Z,-4.66
2022-12-18T00:53:08.942Z,-4.64
2022-12-18T01:03:15.022Z,-4.64
2022-12-18T01:13:22.845Z,-4.61
2022-12-18T01:23:30.185Z,-4.66
2022-12-18T01:33:37.553Z,-4.75
2022-12-18T01:43:45.755Z,-4.83
2022-12-18T01:53:53.442Z,-4.83
2022-12-18T02:04:20.413Z,-4.74
2022-12-18T02:14:40.231Z,-4.63
2022-12-18T02:24:56.326Z,-4.63
2022-12-18T02:35:07.028Z,-4.72
2022-12-18T02:45:15.160Z,-4.81
2022-12-18T02:55:22.722Z,-4.87
2022-12-18T03:05:32.567Z,-4.90
2022-12-18T03:15:40.633Z,-4.94
2022-12-18T03:25:49.213Z,-4.92
2022-12-18T03:35:57.461Z,-4.79
2022-12-18T03:46:08.807Z,-4.77
2022-12-18T03:56:18.750Z,-4.79
2022-12-18T04:06:27.148Z,-4.86
2022-12-18T04:16:34.206Z,-4.96
2022-12-18T04:26:41.422Z,-5.02
2022-12-18T04:36:47.893Z,-5.11
2022-12-18T04:46:55.161Z,-5.08
2022-12-18T04:57:03.164Z,-5.08
2022-12-18T05:07:10.398Z,-4.92
2022-12-18T05:17:17.932Z,-5.07
2022-12-18T05:27:25.134Z,-5.21
2022-12-18T05:37:32.237Z,-5.39
2022-12-18T05:47:39.560Z,-5.51
2022-12-18T05:57:45.646Z,-5.48
2022-12-18T06:07:53.506Z,-5.36
2022-12-18T06:18:02.475Z,-5.20
2022-12-18T06:28:08.263Z,-5.07
2022-12-18T06:38:15.290Z,-4.91
2022-12-18T06:48:22.473Z,-4.86
2022-12-18T06:58:29.817Z,-5.05
2022-12-18T07:08:36.932Z,-5.28
2022-12-18T07:18:44.743Z,-5.27
2022-12-18T07:28:53.156Z,-5.24
2022-12-18T07:39:00.197Z,-5.27
2022-12-18T07:49:07.295Z,-5.15
2022-12-18T07:59:14.615Z,-5.10
2022-12-18T08:09:22.087Z,-4.92
2022-12-18T08:19:29.319Z,-4.78
2022-12-18T08:29:36.683Z,-4.72
2022-12-18T08:39:44.457Z,-4.61
2022-12-18T08:49:51.630Z,-4.42
2022-12-18T08:59:58.673Z,-4.25
2022-12-18T09:10:06.434Z,-4.06
2022-12-18T09:20:14.339Z,-3.58
2022-12-18T09:30:22.099Z,-3.26
2022-12-18T09:40:34.886Z,-3.03
2022-12-18T09:50:43.545Z,-3.19
2022-12-18T10:00:53.534Z,-3.25
2022-12-18T10:21:15.909Z,-3.24
2022-12-18T10:31:25.829Z,-3.33
2022-12-18T10:41:33.587Z,-3.13
2022-12-18T10:51:41.348Z,-3.15
2022-12-18T11:01:52.448Z,-3.14
2022-12-18T11:12:00.393Z,-2.99
2022-12-18T11:22:20.466Z,-3.20
2022-12-18T11:32:28.721Z,-3.25
2022-12-18T11:42:35.083Z,-3.20
2022-12-18T11:52:43.984Z,-3.29
2022-12-18T12:03:00.409Z,-2.94
2022-12-18T12:13:10.563Z,-3.19
2022-12-18T12:23:26.071Z,-3.40
2022-12-18T12:33:36.382Z,-3.52
2022-12-18T12:54:16.058Z,-3.69
2022-12-18T13:04:21.890Z,-3.68
2022-12-18T13:14:28.582Z,-3.82
2022-12-18T13:24:36.189Z,-3.84
2022-12-18T13:34:43.792Z,-3.78
2022-12-18T13:44:51.663Z,-3.90
2022-12-18T13:55:01.987Z,-4.11
2022-12-18T14:05:24.808Z,-4.54
2022-12-18T14:15:29.155Z,-5.03
2022-12-18T14:25:36.346Z,-5.53
2022-12-18T14:35:45.504Z,-5.98
2022-12-18T14:45:53.347Z,-6.35
2022-12-18T14:55:59.566Z,-6.65
2022-12-18T15:06:18.527Z,-7.03
2022-12-18T15:16:24.018Z,-7.44
2022-12-18T15:26:41.126Z,-7.95
2022-12-18T15:36:48.606Z,-8.23
2022-12-18T15:46:56.141Z,-8.45
2022-12-18T15:57:21.251Z,-8.77
2022-12-18T16:07:30.713Z,-9.12
2022-12-18T16:17:38.897Z,-9.37
2022-12-18T16:27:46.119Z,-9.49
2022-12-18T16:37:55.046Z,-9.68
2022-12-18T16:48:02.235Z,-9.74
2022-12-18T16:58:08.664Z,-9.89
2022-12-18T17:08:15.835Z,-9.75
2022-12-18T17:18:23.324Z,-9.51
2022-12-18T17:28:30.800Z,-9.28
2022-12-18T17:38:38.491Z,-9.04
2022-12-18T17:48:45.712Z,-8.91
2022-12-18T17:58:53.743Z,-9.18
2022-12-18T18:09:01.036Z,-9.56
2022-12-18T18:19:11.560Z,-9.79
2022-12-18T18:29:22.016Z,-9.97
2022-12-18T18:39:30.212Z,-10.08
2022-12-18T18:49:36.755Z,-10.05
2022-12-18T18:59:44.264Z,-9.96
2022-12-18T19:09:51.432Z,-10.03
2022-12-18T19:19:58.766Z,-10.02
2022-12-18T19:30:06.564Z,-10.08
2022-12-18T19:40:14.134Z,-9.90
2022-12-18T19:50:21.583Z,-9.75
2022-12-18T20:00:28.844Z,-9.59
2022-12-18T20:10:36.012Z,-9.30
2022-12-18T20:20:42.099Z,-9.16
2022-12-18T20:30:48.124Z,-9.16
2022-12-18T20:40:55.970Z,-9.14
2022-12-18T20:51:02.123Z,-9.10
2022-12-18T21:01:13.725Z,-9.01
2022-12-18T21:11:47.717Z,-8.86
2022-12-18T21:21:55.795Z,-8.70
2022-12-18T21:32:04.140Z,-8.59
2022-12-18T21:42:28.766Z,-8.54
2022-12-18T21:52:35.736Z,-8.62
2022-12-18T22:02:43.212Z,-8.90
2022-12-18T22:12:54.744Z,-9.12
2022-12-18T22:23:06.129Z,-9.27
2022-12-18T22:33:14.019Z,-9.34
2022-12-18T22:43:21.270Z,-9.42
2022-12-18T22:53:28.832Z,-9.30
2022-12-18T23:03:36.433Z,-9.26
2022-12-18T23:13:44.299Z,-9.38
2022-12-18T23:23:51.842Z,-9.42
2022-12-18T23:34:01.101Z,-9.50
2022-12-18T23:44:07.476Z,-9.48
2022-12-18T23:54:15.060Z,-9.49
